createdAt,value
2023-05-08T00:00:24.439Z,12.4
2023-05-08T00:12:24.534Z,12.2
2023-05-08T00:24:24.521Z,11.9
2023-05-08T00:36:24.484Z,11.8
2023-05-08T00:48:24.420Z,11.7
2023-05-08T01:00:24.522Z,11.5
2023-05-08T01:12:24.525Z,11.5
2023-05-08T01:24:24.441Z,11.4
2023-05-08T01:36:24.515Z,11.3
2023-05-08T01:48:24.455Z,11.2
2023-05-08T02:00:24.446Z,11.1
2023-05-08T02:12:24.490Z,11.1
2023-05-08T02:24:24.541Z,11.0
2023-05-08T02:36:24.513Z,10.9
2023-05-08T02:48:24.413Z,10.9
2023-05-08T03:00:24.432Z,10.9
2023-05-08T03:12:24.422Z,10.8
2023-05-08T03:24:25.309Z,10.8
2023-05-08T03:36:24.418Z,10.8
2023-05-08T03:48:24.415Z,10.7
2023-05-08T04:00:24.463Z,10.7
2023-05-08T04:12:24.517Z,10.6
2023-05-08T04:24:24.448Z,10.6
2023-05-08T04:36:24.547Z,10.6
2023-05-08T04:48:24.497Z,10.6
2023-05-08T05:00:24.442Z,10.6
2023-05-08T05:12:24.481Z,10.6
2023-05-08T05:24:24.433Z,10.6
2023-05-08T05:36:24.536Z,10.6
2023-05-08T05:48:24.526Z,10.7
2023-05-08T06:00:24.488Z,10.8
2023-05-08T06:12:24.539Z,10.8
2023-05-08T06:24:24.444Z,11.0
2023-05-08T06:36:24.482Z,11.2
2023-05-08T06:48:24.449Z,11.2
2023-05-08T07:00:24.527Z,11.3
2023-05-08T07:12:24.538Z,11.3
2023-05-08T07:24:24.432Z,11.6
2023-05-08T07:36:24.542Z,11.6
2023-05-08T07:48:24.494Z,11.4
2023-05-08T08:00:24.471Z,11.6
2023-05-08T08:12:24.534Z,11.5
2023-05-08T08:24:24.435Z,11.4
2023-05-08T08:36:24.426Z,11.5
2023-05-08T08:48:24.527Z,11.5
2023-05-08T09:00:24.430Z,11.7
2023-05-08T09:12:24.455Z,12.1
2023-05-08T09:24:24.443Z,12.4
2023-05-08T09:36:24.441Z,13.0
2023-05-08T09:48:24.506Z,13.4
2023-05-08T10:00:24.476Z,13.5
2023-05-08T10:12:24.429Z,13.2
2023-05-08T10:24:24.553Z,13.1
2023-05-08T10:36:24.436Z,13.0
2023-05-08T10:48:24.539Z,13.3
2023-05-08T11:00:24.447Z,13.4
2023-05-08T11:12:24.529Z,13.7
2023-05-08T11:24:24.528Z,14.1
2023-05-08T11:36:24.716Z,14.1
2023-05-08T11:48:24.519Z,14.3
2023-05-08T12:00:24.623Z,14.3
2023-05-08T12:12:24.424Z,14.4
2023-05-08T12:24:24.528Z,14.2
2023-05-08T12:36:24.532Z,14.6
2023-05-08T12:48:24.536Z,14.6
2023-05-08T13:00:24.534Z,14.1
2023-05-08T13:12:24.432Z,14.2
2023-05-08T13:24:24.481Z,14.4
2023-05-08T13:36:24.459Z,14.7
2023-05-08T13:48:24.491Z,15.2
2023-05-08T14:00:25.995Z,15.1
2023-05-08T14:12:24.527Z,15.6
2023-05-08T14:24:24.519Z,15.6
2023-05-08T14:36:24.455Z,15.5
2023-05-08T14:48:24.550Z,15.7
2023-05-08T15:00:24.477Z,15.9
2023-05-08T15:12:24.528Z,15.9
2023-05-08T15:24:24.418Z,16.1
2023-05-08T15:36:25.372Z,16.1
2023-05-08T15:48:24.495Z,16.1
2023-05-08T16:00:25.230Z,16.0
2023-05-08T16:12:24.552Z,16.1
2023-05-08T16:24:24.478Z,16.1
2023-05-08T16:36:24.496Z,16.1
2023-05-08T16:48:24.426Z,16.3
2023-05-08T17:00:24.436Z,16.5
2023-05-08T17:12:24.541Z,16.4
2023-05-08T17:24:24.522Z,16.0
2023-05-08T17:36:24.554Z,15.7
2023-05-08T17:48:24.547Z,15.1
2023-05-08T18:00:24.529Z,14.9
2023-05-08T18:12:24.429Z,14.7
2023-05-08T18:24:24.565Z,14.6
2023-05-08T18:36:24.462Z,14.6
2023-05-08T18:48:24.431Z,14.4
2023-05-08T19:00:24.534Z,14.2
2023-05-08T19:12:24.446Z,13.9
2023-05-08T19:24:24.535Z,13.4
2023-05-08T19:36:24.442Z,13.4
2023-05-08T19:48:24.600Z,13.2
2023-05-08T20:00:24.547Z,13.1
2023-05-08T20:12:24.427Z,13.0
2023-05-08T20:24:24.498Z,12.8
2023-05-08T20:36:24.503Z,12.6
2023-05-08T20:48:24.539Z,12.6
2023-05-08T21:00:24.542Z,12.7
2023-05-08T21:12:24.433Z,12.6
2023-05-08T21:24:24.441Z,12.5
2023-05-08T21:36:24.476Z,12.6
2023-05-08T21:48:24.482Z,12.6
2023-05-08T22:00:24.914Z,12.6
2023-05-08T22:12:24.418Z,12.6
2023-05-08T22:24:24.459Z,12.4
2023-05-08T22:36:24.670Z,12.7
2023-05-08T22:48:24.552Z,12.6
2023-05-08T23:00:24.448Z,12.6
2023-05-08T23:12:24.478Z,12.5
2023-05-08T23:24:24.778Z,12.3
2023-05-08T23:36:24.506Z,12.1
2023-05-08T23:48:24.519Z,11.8
